createdAt,value
2023-05-20T00:01:30.065Z,95199.88
2023-05-20T00:03:58.731Z,95192.81
2023-05-20T00:06:26.830Z,95183.94
2023-05-20T00:08:56.413Z,95183.97
2023-05-20T00:11:24.454Z,95180.53
2023-05-20T00:13:52.493Z,95196.97
2023-05-20T00:16:20.575Z,95172.31
2023-05-20T00:18:48.584Z,95185.66
2023-05-20T00:21:16.493Z,95190.03
2023-05-20T00:23:44.498Z,95186.50
2023-05-20T00:26:13.918Z,95183.56
2023-05-20T00:28:42.720Z,95182.44
2023-05-20T00:31:10.691Z,95200.13
2023-05-20T00:33:38.527Z,95183.31
2023-05-20T00:36:07.454Z,95191.59
2023-05-20T00:38:35.452Z,95194.03
2023-05-20T00:41:03.349Z,95190.34
2023-05-20T00:43:32.862Z,95181.06
2023-05-20T00:46:02.184Z,95189.47
2023-05-20T00:48:37.134Z,95183.69
2023-05-20T00:51:05.174Z,95183.31
2023-05-20T00:53:33.157Z,95175.75
2023-05-20T00:56:01.602Z,95187.50
2023-05-20T00:58:29.586Z,95188.13
2023-05-20T01:00:59.358Z,95191.78
2023-05-20T01:03:28.192Z,95188.69
2023-05-20T01:05:59.259Z,95177.38
2023-05-20T01:08:31.622Z,95177.44
2023-05-20T01:11:05.785Z,95173.38
2023-05-20T01:13:47.743Z,95161.69
2023-05-20T01:16:19.627Z,95177.31
2023-05-20T01:18:49.400Z,95174.06
2023-05-20T01:21:21.987Z,95168.41
2023-05-20T01:23:51.780Z,95168.84
2023-05-20T01:26:21.758Z,95164.69
2023-05-20T01:28:51.149Z,95144.91
2023-05-20T01:31:25.050Z,95151.44
2023-05-20T01:33:59.142Z,95149.06
2023-05-20T01:36:29.168Z,95159.16
2023-05-20T01:38:59.596Z,95158.72
2023-05-20T01:41:29.832Z,95154.22
2023-05-20T01:43:59.183Z,95161.84
2023-05-20T01:46:33.633Z,95146.78
2023-05-20T01:49:01.678Z,95135.94
2023-05-20T01:51:30.871Z,95153.88
2023-05-20T01:54:00.489Z,95134.22
2023-05-20T01:56:28.440Z,95146.38
2023-05-20T01:58:56.317Z,95146.91
2023-05-20T02:01:25.712Z,95150.50
2023-05-20T02:03:53.725Z,95123.91
2023-05-20T02:06:21.602Z,95144.34
2023-05-20T02:08:49.628Z,95135.38
2023-05-20T02:11:20.603Z,95145.91
2023-05-20T02:13:48.558Z,95143.97
2023-05-20T02:16:16.665Z,95140.25
2023-05-20T02:18:46.760Z,95146.91
2023-05-20T02:21:18.384Z,95148.13
2023-05-20T02:23:46.601Z,95140.75
2023-05-20T02:26:14.529Z,95159.81
2023-05-20T02:28:48.151Z,95142.69
2023-05-20T02:31:16.192Z,95140.44
2023-05-20T02:33:44.260Z,95142.44
2023-05-20T02:36:12.165Z,95149.81
2023-05-20T02:38:40.080Z,95150.03
2023-05-20T02:41:07.989Z,95151.06
2023-05-20T02:43:36.514Z,95145.22
2023-05-20T02:46:05.936Z,95151.28
2023-05-20T02:48:34.426Z,95153.06
2023-05-20T02:51:02.407Z,95151.88
2023-05-20T02:53:30.452Z,95153.66
2023-05-20T02:55:59.666Z,95157.19
2023-05-20T02:58:30.049Z,95131.69
2023-05-20T03:00:58.694Z,95148.97
2023-05-20T03:03:28.524Z,95142.06
2023-05-20T03:05:56.624Z,95132.34
2023-05-20T03:08:25.230Z,95143.34
2023-05-20T03:10:53.058Z,95138.44
2023-05-20T03:13:22.350Z,95140.47
2023-05-20T03:15:50.516Z,95135.66
2023-05-20T03:18:18.422Z,95141.44
2023-05-20T03:20:48.274Z,95141.75
2023-05-20T03:23:16.178Z,95133.94
2023-05-20T03:25:44.139Z,95135.59
2023-05-20T03:28:12.874Z,95137.84
2023-05-20T03:30:40.925Z,95140.13
2023-05-20T03:33:08.843Z,95139.91
2023-05-20T03:35:37.125Z,95137.28
2023-05-20T03:38:06.928Z,95145.69
2023-05-20T03:40:36.914Z,95141.25
2023-05-20T03:43:05.615Z,95144.50
2023-05-20T03:45:34.774Z,95145.47
2023-05-20T03:48:08.934Z,95148.72
2023-05-20T03:50:37.231Z,95140.50
2023-05-20T03:53:06.651Z,95156.63
2023-05-20T03:55:43.621Z,95156.47
2023-05-20T03:58:13.689Z,95157.03
2023-05-20T04:00:42.084Z,95146.19
2023-05-20T04:03:10.487Z,95153.91
2023-05-20T04:05:38.549Z,95148.38
2023-05-20T04:08:15.987Z,95137.72
2023-05-20T04:10:43.857Z,95138.63
2023-05-20T04:13:13.070Z,95129.41
2023-05-20T04:15:41.955Z,95133.69
2023-05-20T04:18:10.653Z,95125.28
2023-05-20T04:20:41.345Z,95128.94
2023-05-20T04:23:09.758Z,95132.00
2023-05-20T04:25:39.328Z,95129.91
2023-05-20T04:28:07.851Z,95137.25
2023-05-20T04:30:35.727Z,95127.84
2023-05-20T04:33:04.019Z,95125.38
2023-05-20T04:35:35.124Z,95128.22
2023-05-20T04:38:05.754Z,95119.19
2023-05-20T04:40:33.947Z,95122.56
2023-05-20T04:43:04.211Z,95132.78
2023-05-20T04:45:33.691Z,95131.53
2023-05-20T04:48:02.020Z,95146.88
2023-05-20T04:50:30.000Z,95125.38
2023-05-20T04:52:58.989Z,95130.69
2023-05-20T04:55:30.847Z,95139.03
2023-05-20T04:58:04.032Z,95141.44
2023-05-20T05:00:32.077Z,95127.78
2023-05-20T05:03:00.011Z,95142.63
2023-05-20T05:05:27.975Z,95134.69
2023-05-20T05:07:55.897Z,95136.56
2023-05-20T05:10:25.231Z,95134.38
2023-05-20T05:12:55.714Z,95119.75
2023-05-20T05:15:25.213Z,95125.53
2023-05-20T05:17:53.175Z,95131.38
2023-05-20T05:20:21.224Z,95124.69
2023-05-20T05:22:52.083Z,95120.03
2023-05-20T05:25:20.231Z,95111.53
2023-05-20T05:27:49.272Z,95118.44
2023-05-20T05:30:17.817Z,95123.25
2023-05-20T05:32:47.045Z,95114.59
2023-05-20T05:35:15.111Z,95120.34
2023-05-20T05:37:43.241Z,95127.19
2023-05-20T05:40:12.229Z,95120.94
2023-05-20T05:42:40.494Z,95131.53
2023-05-20T05:45:10.475Z,95125.09
2023-05-20T05:47:38.429Z,95135.34
2023-05-20T05:50:08.222Z,95127.16
2023-05-20T05:52:36.668Z,95129.38
2023-05-20T05:55:07.111Z,95137.44
2023-05-20T05:57:35.801Z,95141.00
2023-05-20T06:00:04.661Z,95136.59
2023-05-20T06:02:46.202Z,95132.56
2023-05-20T06:05:32.874Z,95130.75
2023-05-20T06:08:03.283Z,95133.47
2023-05-20T06:10:33.857Z,95126.38
2023-05-20T06:13:01.845Z,95131.69
2023-05-20T06:15:32.409Z,95143.94
2023-05-20T06:18:01.171Z,95134.03
2023-05-20T06:20:29.121Z,95142.81
2023-05-20T06:22:58.741Z,95131.31
2023-05-20T06:25:32.940Z,95128.88
2023-05-20T06:28:00.943Z,95134.38
2023-05-20T06:30:28.936Z,95135.59
2023-05-20T06:32:56.905Z,95126.44
2023-05-20T06:35:24.868Z,95127.06
2023-05-20T06:37:52.874Z,95122.56
2023-05-20T06:40:23.229Z,95124.59
2023-05-20T06:42:51.295Z,95123.81
2023-05-20T06:45:19.582Z,95116.16
2023-05-20T06:47:54.467Z,95127.19
2023-05-20T06:50:22.471Z,95127.41
2023-05-20T06:52:52.750Z,95119.19
2023-05-20T06:55:22.344Z,95112.81
2023-05-20T06:57:50.960Z,95112.44
2023-05-20T07:00:20.041Z,95110.91
2023-05-20T07:02:49.154Z,95117.81
2023-05-20T07:05:17.346Z,95117.50
2023-05-20T07:07:46.503Z,95120.19
2023-05-20T07:10:14.795Z,95119.91
2023-05-20T07:12:44.898Z,95113.34
2023-05-20T07:15:12.988Z,95113.66
2023-05-20T07:17:41.025Z,95113.84
2023-05-20T07:20:09.721Z,95114.81
2023-05-20T07:22:37.827Z,95109.69
2023-05-20T07:25:12.546Z,95094.84
2023-05-20T07:27:40.398Z,95108.25
2023-05-20T07:30:11.063Z,95111.81
2023-05-20T07:32:40.842Z,95108.03
2023-05-20T07:35:10.274Z,95105.66
2023-05-20T07:37:38.099Z,95107.38
2023-05-20T07:40:09.700Z,95105.59
2023-05-20T07:42:39.165Z,95107.25
2023-05-20T07:45:08.071Z,95093.03
2023-05-20T07:47:37.308Z,95100.25
2023-05-20T07:50:05.511Z,95094.88
2023-05-20T07:52:43.993Z,95096.63
2023-05-20T07:55:23.715Z,95103.13
2023-05-20T07:57:51.568Z,95103.22
2023-05-20T08:00:20.760Z,95112.31
2023-05-20T08:02:50.032Z,95117.22
2023-05-20T08:05:24.506Z,95111.16
2023-05-20T08:07:52.566Z,95101.97
2023-05-20T08:10:23.305Z,95099.69
2023-05-20T08:12:51.280Z,95094.28
2023-05-20T08:15:19.181Z,95105.75
2023-05-20T08:17:49.764Z,95104.41
2023-05-20T08:20:18.439Z,95094.50
2023-05-20T08:22:46.280Z,95101.13
2023-05-20T08:25:14.244Z,95102.28
2023-05-20T08:27:42.408Z,95097.63
2023-05-20T08:30:11.580Z,95092.19
2023-05-20T08:32:39.626Z,95093.78
2023-05-20T08:35:09.687Z,95083.16
2023-05-20T08:37:37.588Z,95079.94
2023-05-20T08:40:06.544Z,95090.06
2023-05-20T08:42:35.594Z,95088.28
2023-05-20T08:45:04.847Z,95079.78
2023-05-20T08:47:33.312Z,95082.81
2023-05-20T08:50:01.329Z,95078.47
2023-05-20T08:52:33.238Z,95075.19
2023-05-20T08:55:01.754Z,95076.53
2023-05-20T08:57:29.764Z,95084.59
2023-05-20T08:59:58.044Z,95084.41
2023-05-20T09:02:25.916Z,95072.69
2023-05-20T09:04:54.065Z,95080.00
2023-05-20T09:07:28.299Z,95089.41
2023-05-20T09:09:58.056Z,95086.47
2023-05-20T09:12:25.921Z,95089.84
2023-05-20T09:14:53.711Z,95099.22
2023-05-20T09:17:22.556Z,95095.03
2023-05-20T09:19:51.007Z,95092.44
2023-05-20T09:22:24.072Z,95091.94
2023-05-20T09:24:52.180Z,95093.25
2023-05-20T09:27:21.854Z,95080.38
2023-05-20T09:29:49.765Z,95067.78
2023-05-20T09:32:18.068Z,95070.34
2023-05-20T09:34:48.242Z,95081.06
2023-05-20T09:37:19.765Z,95087.41
2023-05-20T09:40:00.681Z,95085.22
2023-05-20T09:42:36.589Z,95080.66
2023-05-20T09:45:06.171Z,95076.59
2023-05-20T09:47:34.455Z,95068.09
2023-05-20T09:50:03.918Z,95068.63
2023-05-20T09:52:32.472Z,95068.97
2023-05-20T09:55:01.540Z,95064.03
2023-05-20T09:57:31.746Z,95057.72
2023-05-20T09:59:59.555Z,95059.81
2023-05-20T10:02:28.099Z,95050.72
2023-05-20T10:04:58.730Z,95054.88
2023-05-20T10:07:47.680Z,95054.84
2023-05-20T10:10:27.139Z,95048.88
2023-05-20T10:13:07.079Z,95049.63
2023-05-20T10:15:45.772Z,95059.53
2023-05-20T10:18:51.820Z,95058.25
2023-05-20T10:21:24.524Z,95050.69
2023-05-20T10:23:53.328Z,95049.13
2023-05-20T10:26:21.834Z,95048.03
2023-05-20T10:28:51.143Z,95047.75
2023-05-20T10:31:22.301Z,95044.44
2023-05-20T10:33:53.526Z,95036.47
2023-05-20T10:36:26.222Z,95024.91
2023-05-20T10:38:55.398Z,95032.44
2023-05-20T10:41:24.756Z,95026.41
2023-05-20T10:44:03.417Z,95019.09
2023-05-20T10:46:40.064Z,95017.22
2023-05-20T10:49:24.037Z,95017.66
2023-05-20T10:51:55.589Z,95016.59
2023-05-20T10:54:24.016Z,95013.38
2023-05-20T10:56:53.738Z,95003.78
2023-05-20T10:59:23.243Z,95004.31
2023-05-20T11:01:52.037Z,94999.63
2023-05-20T11:04:20.611Z,95005.66
2023-05-20T11:06:54.087Z,94992.59
2023-05-20T11:09:22.253Z,94989.28
2023-05-20T11:11:50.801Z,94991.59
2023-05-20T11:14:20.115Z,94993.47
2023-05-20T11:16:53.190Z,95000.75
2023-05-20T11:19:21.977Z,94989.50
2023-05-20T11:21:50.030Z,94985.31
2023-05-20T11:24:27.585Z,94986.81
2023-05-20T11:26:55.896Z,94987.50
2023-05-20T11:29:23.908Z,94976.19
2023-05-20T11:31:53.547Z,94984.75
2023-05-20T11:34:25.034Z,94975.69
2023-05-20T11:36:57.875Z,94979.59
2023-05-20T11:39:26.958Z,94974.13
2023-05-20T11:41:54.858Z,94976.00
2023-05-20T11:44:22.751Z,94975.84
2023-05-20T11:46:50.585Z,94974.44
2023-05-20T11:49:19.786Z,94964.88
2023-05-20T11:51:47.597Z,94962.78
2023-05-20T11:54:15.464Z,94961.59
2023-05-20T11:56:45.498Z,94965.34
2023-05-20T11:59:14.787Z,94949.47
2023-05-20T12:01:43.205Z,94956.19
2023-05-20T12:04:12.022Z,94956.78
2023-05-20T12:06:42.845Z,94963.28
2023-05-20T12:09:13.961Z,94950.09
2023-05-20T12:11:42.272Z,94947.19
2023-05-20T12:14:10.824Z,94955.69
2023-05-20T12:16:39.347Z,94957.66
2023-05-20T12:19:08.684Z,94958.53
2023-05-20T12:21:36.735Z,94936.34
2023-05-20T12:24:08.538Z,94939.50
2023-05-20T12:26:36.529Z,94943.41
2023-05-20T12:29:04.416Z,94940.97
2023-05-20T12:31:34.672Z,94937.22
2023-05-20T12:34:03.139Z,94942.72
2023-05-20T12:36:31.478Z,94938.84
2023-05-20T12:38:59.284Z,94938.88
2023-05-20T12:41:28.462Z,94942.59
2023-05-20T12:43:56.331Z,94943.03
2023-05-20T12:46:24.265Z,94947.06
2023-05-20T12:48:52.368Z,94942.06
2023-05-20T12:51:21.075Z,94935.84
2023-05-20T12:53:49.075Z,94926.22
2023-05-20T12:56:16.948Z,94935.38
2023-05-20T12:58:46.269Z,94935.88
2023-05-20T13:01:14.222Z,94931.63
2023-05-20T13:03:42.231Z,94936.25
2023-05-20T13:06:10.163Z,94936.75
2023-05-20T13:08:38.121Z,94941.84
2023-05-20T13:11:06.004Z,94922.00
2023-05-20T13:13:33.875Z,94922.38
2023-05-20T13:16:03.186Z,94919.25
2023-05-20T13:18:31.032Z,94913.00
2023-05-20T13:20:58.939Z,94912.31
2023-05-20T13:23:26.784Z,94914.19
2023-05-20T13:25:54.670Z,94917.91
2023-05-20T13:28:23.070Z,94909.47
2023-05-20T13:30:51.042Z,94902.09
2023-05-20T13:33:20.234Z,94899.38
2023-05-20T13:35:48.226Z,94897.31
2023-05-20T13:38:16.598Z,94900.63
2023-05-20T13:40:44.430Z,94894.88
2023-05-20T13:43:12.418Z,94891.50
2023-05-20T13:45:40.263Z,94892.53
2023-05-20T13:48:08.147Z,94894.25
2023-05-20T13:50:37.424Z,94887.38
2023-05-20T13:53:05.213Z,94887.34
2023-05-20T13:55:33.066Z,94884.75
2023-05-20T13:58:00.898Z,94880.69
2023-05-20T14:00:28.694Z,94879.19
2023-05-20T14:02:56.726Z,94884.81
2023-05-20T14:05:24.695Z,94873.28
2023-05-20T14:07:53.890Z,94877.53
2023-05-20T14:10:21.899Z,94874.63
2023-05-20T14:12:49.743Z,94877.94
2023-05-20T14:15:17.561Z,94875.22
2023-05-20T14:17:45.565Z,94874.44
2023-05-20T14:20:13.791Z,94879.88
2023-05-20T14:22:41.732Z,94873.41
2023-05-20T14:25:11.146Z,94864.75
2023-05-20T14:27:39.036Z,94868.31
2023-05-20T14:30:08.380Z,94864.78
2023-05-20T14:32:36.337Z,94866.63
2023-05-20T14:35:04.709Z,94860.00
2023-05-20T14:37:32.612Z,94862.22
2023-05-20T14:40:01.852Z,94857.31
2023-05-20T14:42:30.973Z,94862.16
2023-05-20T14:44:58.772Z,94856.00
2023-05-20T14:47:26.856Z,94853.38
2023-05-20T14:49:54.894Z,94839.88
2023-05-20T14:52:22.734Z,94848.66
2023-05-20T14:54:50.693Z,94851.47
2023-05-20T14:57:18.629Z,94838.09
2023-05-20T14:59:47.804Z,94848.59
2023-05-20T15:02:16.175Z,94838.72
2023-05-20T15:04:46.415Z,94842.94
2023-05-20T15:07:14.520Z,94849.84
2023-05-20T15:09:42.602Z,94846.06
2023-05-20T15:12:11.378Z,94850.84
2023-05-20T15:14:39.278Z,94851.22
2023-05-20T15:17:08.935Z,94843.88
2023-05-20T15:19:38.976Z,94851.56
2023-05-20T15:22:09.084Z,94857.06
2023-05-20T15:24:36.916Z,94842.63
2023-05-20T15:27:05.702Z,94851.31
2023-05-20T15:29:33.829Z,94852.06
2023-05-20T15:32:01.707Z,94846.53
2023-05-20T15:34:31.186Z,94846.69
2023-05-20T15:36:59.004Z,94857.00
2023-05-20T15:39:28.290Z,94859.91
2023-05-20T15:41:59.438Z,94863.81
2023-05-20T15:44:28.771Z,94852.13
2023-05-20T15:46:56.745Z,94867.75
2023-05-20T15:49:24.734Z,94864.16
2023-05-20T15:52:02.827Z,94855.41
2023-05-20T15:54:32.400Z,94855.31
2023-05-20T15:57:00.226Z,94848.75
2023-05-20T15:59:28.112Z,94840.75
2023-05-20T16:01:56.183Z,94847.97
2023-05-20T16:04:24.236Z,94844.06
2023-05-20T16:06:52.309Z,94843.50
2023-05-20T16:09:22.104Z,94830.81
2023-05-20T16:11:49.922Z,94838.06
2023-05-20T16:14:17.881Z,94842.88
2023-05-20T16:16:46.021Z,94833.94
2023-05-20T16:19:13.955Z,94830.53
2023-05-20T16:21:41.775Z,94832.72
2023-05-20T16:24:09.584Z,94836.03
2023-05-20T16:26:38.804Z,94840.28
2023-05-20T16:29:08.851Z,94833.16
2023-05-20T16:31:36.816Z,94823.69
2023-05-20T16:34:05.074Z,94831.63
2023-05-20T16:36:32.912Z,94842.94
2023-05-20T16:39:00.764Z,94835.53
2023-05-20T16:41:28.790Z,94835.69
2023-05-20T16:43:57.954Z,94837.00
2023-05-20T16:46:25.899Z,94842.81
2023-05-20T16:48:53.692Z,94836.81
2023-05-20T16:51:21.686Z,94852.53
2023-05-20T16:53:49.530Z,94844.66
2023-05-20T16:56:17.413Z,94844.72
2023-05-20T16:58:45.276Z,94847.00
2023-05-20T17:01:14.798Z,94848.91
2023-05-20T17:03:42.713Z,94837.53
2023-05-20T17:06:10.572Z,94844.59
2023-05-20T17:08:39.062Z,94850.34
2023-05-20T17:11:07.026Z,94846.22
2023-05-20T17:13:34.963Z,94845.66
2023-05-20T17:16:03.052Z,94847.34
2023-05-20T17:18:32.212Z,94847.34
2023-05-20T17:21:00.017Z,94846.88
2023-05-20T17:23:27.900Z,94851.63
2023-05-20T17:25:55.899Z,94841.00
2023-05-20T17:28:23.688Z,94854.28
2023-05-20T17:30:51.546Z,94849.75
2023-05-20T17:33:19.567Z,94858.28
2023-05-20T17:35:48.800Z,94853.59
2023-05-20T17:38:16.743Z,94850.72
2023-05-20T17:40:44.540Z,94863.84
2023-05-20T17:43:12.372Z,94861.25
2023-05-20T17:45:40.169Z,94856.88
2023-05-20T17:48:10.103Z,94861.09
2023-05-20T17:50:39.445Z,94861.63
2023-05-20T17:53:09.651Z,94860.06
2023-05-20T17:55:37.664Z,94865.06
2023-05-20T17:58:07.115Z,94862.72
2023-05-20T18:00:41.911Z,94859.34
2023-05-20T18:03:10.406Z,94857.59
2023-05-20T18:05:38.342Z,94862.53
2023-05-20T18:08:07.853Z,94860.22
2023-05-20T18:10:36.062Z,94860.75
2023-05-20T18:13:04.073Z,94866.72
2023-05-20T18:15:31.907Z,94872.72
2023-05-20T18:17:59.730Z,94868.31
2023-05-20T18:20:27.612Z,94878.47
2023-05-20T18:22:58.397Z,94874.81
2023-05-20T18:25:27.967Z,94871.44
2023-05-20T18:27:55.901Z,94876.13
2023-05-20T18:30:24.206Z,94876.59
2023-05-20T18:32:53.229Z,94873.19
2023-05-20T18:35:21.135Z,94875.78
2023-05-20T18:37:49.003Z,94873.19
2023-05-20T18:40:16.811Z,94867.94
2023-05-20T18:42:46.196Z,94867.41
2023-05-20T18:45:14.070Z,94866.63
2023-05-20T18:47:42.041Z,94868.94
2023-05-20T18:50:10.811Z,94868.94
2023-05-20T18:52:38.768Z,94867.88
2023-05-20T18:55:07.821Z,94868.88
2023-05-20T18:57:35.717Z,94872.03
2023-05-20T19:00:08.524Z,94869.41
2023-05-20T19:02:36.435Z,94867.31
2023-05-20T19:05:04.378Z,94869.09
2023-05-20T19:07:32.297Z,94869.06
2023-05-20T19:10:00.151Z,94863.09
2023-05-20T19:12:28.153Z,94865.88
2023-05-20T19:14:56.087Z,94871.56
2023-05-20T19:17:25.682Z,94879.09
2023-05-20T19:19:53.500Z,94887.88
2023-05-20T19:22:21.575Z,94878.50
2023-05-20T19:24:49.373Z,94883.47
2023-05-20T19:27:17.339Z,94883.16
2023-05-20T19:29:45.160Z,94886.81
2023-05-20T19:32:13.032Z,94888.59
2023-05-20T19:34:43.754Z,94899.22
2023-05-20T19:37:11.716Z,94894.72
2023-05-20T19:39:39.615Z,94902.50
2023-05-20T19:42:07.476Z,94903.50
2023-05-20T19:44:35.420Z,94908.44
2023-05-20T19:47:05.545Z,94905.56
2023-05-20T19:49:33.729Z,94908.69
2023-05-20T19:52:03.068Z,94905.25
2023-05-20T19:54:30.974Z,94915.59
2023-05-20T19:56:58.767Z,94913.75
2023-05-20T19:59:26.980Z,94920.47
2023-05-20T20:01:54.999Z,94917.09
2023-05-20T20:04:22.897Z,94917.59
2023-05-20T20:06:50.773Z,94915.47
2023-05-20T20:09:20.018Z,94916.69
2023-05-20T20:11:47.923Z,94913.53
2023-05-20T20:14:15.790Z,94913.53
2023-05-20T20:16:49.133Z,94914.25
2023-05-20T20:19:22.842Z,94904.50
2023-05-20T20:21:53.139Z,94909.28
2023-05-20T20:24:22.400Z,94916.06
2023-05-20T20:26:50.480Z,94918.50
2023-05-20T20:29:18.316Z,94914.91
2023-05-20T20:31:46.146Z,94916.31
2023-05-20T20:34:13.992Z,94912.09
2023-05-20T20:36:44.888Z,94918.75
2023-05-20T20:39:18.883Z,94920.81
2023-05-20T20:41:50.284Z,94918.34
2023-05-20T20:44:20.924Z,94920.09
2023-05-20T20:46:50.800Z,94918.22
2023-05-20T20:49:18.907Z,94930.97
2023-05-20T20:51:47.130Z,94918.75
2023-05-20T20:54:15.319Z,94918.63
2023-05-20T20:56:45.538Z,94920.63
2023-05-20T20:59:15.726Z,94917.47
2023-05-20T21:01:44.828Z,94920.59
2023-05-20T21:04:13.836Z,94923.59
2023-05-20T21:06:45.868Z,94917.81
2023-05-20T21:09:13.804Z,94920.75
2023-05-20T21:11:42.812Z,94922.66
2023-05-20T21:14:11.139Z,94927.06
2023-05-20T21:16:42.027Z,94921.75
2023-05-20T21:19:10.071Z,94922.75
2023-05-20T21:21:37.871Z,94917.66
2023-05-20T21:24:13.708Z,94913.13
2023-05-20T21:26:41.557Z,94918.00
2023-05-20T21:29:11.953Z,94913.53
2023-05-20T21:31:40.095Z,94913.06
2023-05-20T21:34:07.889Z,94905.66
2023-05-20T21:36:36.292Z,94907.84
2023-05-20T21:39:04.522Z,94909.03
2023-05-20T21:41:33.713Z,94904.28
2023-05-20T21:44:01.516Z,94902.16
2023-05-20T21:46:29.377Z,94906.00
2023-05-20T21:48:57.208Z,94905.44
2023-05-20T21:51:25.018Z,94913.75
2023-05-20T21:53:52.877Z,94900.97
2023-05-20T21:56:21.629Z,94907.97
2023-05-20T21:58:50.873Z,94898.22
2023-05-20T22:01:18.694Z,94906.06
2023-05-20T22:03:49.558Z,94909.84
2023-05-20T22:06:21.389Z,94909.81
2023-05-20T22:08:49.367Z,94904.59
2023-05-20T22:11:17.330Z,94907.50
2023-05-20T22:13:45.148Z,94903.72
2023-05-20T22:16:14.394Z,94909.44
2023-05-20T22:18:42.733Z,94907.63
2023-05-20T22:21:11.115Z,94900.34
2023-05-20T22:23:38.959Z,94903.63
2023-05-20T22:26:08.593Z,94898.84
2023-05-20T22:28:36.431Z,94898.72
2023-05-20T22:31:04.462Z,94904.34
2023-05-20T22:33:33.670Z,94895.34
2023-05-20T22:36:01.468Z,94896.72
2023-05-20T22:38:29.754Z,94899.94
2023-05-20T22:40:57.635Z,94888.50
2023-05-20T22:43:26.265Z,94890.19
2023-05-20T22:45:54.154Z,94890.53
2023-05-20T22:48:23.065Z,94889.41
2023-05-20T22:50:53.976Z,94884.03
2023-05-20T22:53:21.806Z,94887.81
2023-05-20T22:55:49.884Z,94888.50
2023-05-20T22:58:17.723Z,94880.50
2023-05-20T23:00:45.799Z,94879.19
2023-05-20T23:03:13.735Z,94872.09
2023-05-20T23:05:41.595Z,94872.81
2023-05-20T23:08:10.808Z,94875.81
2023-05-20T23:10:38.749Z,94874.72
2023-05-20T23:13:06.592Z,94869.88
2023-05-20T23:15:34.796Z,94858.41
2023-05-20T23:18:02.884Z,94861.97
2023-05-20T23:20:30.717Z,94864.06
2023-05-20T23:23:00.126Z,94858.59
2023-05-20T23:25:32.806Z,94858.59
2023-05-20T23:28:00.677Z,94855.94
2023-05-20T23:30:28.466Z,94856.81
2023-05-20T23:32:57.770Z,94853.25
2023-05-20T23:35:25.699Z,94853.25
2023-05-20T23:37:53.525Z,94843.22
2023-05-20T23:40:21.381Z,94847.19
2023-05-20T23:42:50.572Z,94849.88
2023-05-20T23:45:18.503Z,94846.19
2023-05-20T23:47:46.359Z,94846.13
2023-05-20T23:50:14.351Z,94841.09
2023-05-20T23:52:42.156Z,94846.59
2023-05-20T23:55:12.883Z,94843.81
2023-05-20T23:57:40.955Z,94837.88
